Time;durP1;ratioP1;P1;durP2;ratioP2;P2;SDS_P1;SDS_P2;PMS_P1;PMS_P2;Temp;Humidity;BMP_temperature;BMP_pressure;BME280_temperature;BME280_humidity;BME280_pressure;Samples;Min_cycle;Max_cycle;Signal;HPM_P1;HPM_P2
2021/11/11 00:01:59;0.00;0.00;0.62;0.00;0.00;0.62;3.00;1.83;;;23.60;27.70;;;;;;2253600;61;20387;-63
2021/11/11 00:04:44;0.00;0.00;0.62;0.00;0.00;0.62;3.00;2.30;;;23.50;27.60;;;;;;2253255;61;20363;-63
2021/11/11 00:07:29;0.00;0.00;0.62;0.00;0.00;0.62;3.10;2.17;;;23.50;27.60;;;;;;2253219;61;20414;-62
2021/11/11 00:10:16;0.00;0.00;0.62;0.00;0.00;0.62;2.57;2.07;;;23.50;27.60;;;;;;2253564;61;20570;-64
2021/11/11 00:13:01;0.00;0.00;0.62;0.00;0.00;0.62;2.50;1.93;;;23.50;27.60;;;;;;2253353;61;20423;-62
2021/11/11 00:15:47;0.00;0.00;0.62;0.00;0.00;0.62;2.73;2.20;;;23.50;27.70;;;;;;2253412;61;20419;-63
2021/11/11 00:18:32;0.00;0.00;0.62;0.00;0.00;0.62;2.17;1.60;;;23.50;27.70;;;;;;2253143;61;20483;-62
2021/11/11 00:21:18;0.00;0.00;0.62;0.00;0.00;0.62;2.57;2.00;;;23.50;27.70;;;;;;2253656;61;20790;-62
2021/11/11 00:24:03;0.00;0.00;0.62;0.00;0.00;0.62;2.37;2.00;;;23.50;27.70;;;;;;2253607;61;20372;-63
2021/11/11 00:26:48;0.00;0.00;0.62;0.00;0.00;0.62;2.17;1.90;;;23.50;27.70;;;;;;2249697;61;20355;-62
2021/11/11 00:29:32;0.00;0.00;0.62;0.00;0.00;0.62;2.30;1.93;;;23.50;27.70;;;;;;2253462;61;20760;-62
2021/11/11 00:32:17;0.00;0.00;0.62;0.00;0.00;0.62;2.50;1.93;;;23.50;27.70;;;;;;2253275;61;20387;-63
2021/11/11 00:35:02;0.00;0.00;0.62;0.00;0.00;0.62;2.43;2.03;;;23.50;27.70;;;;;;2253321;61;20363;-62
2021/11/11 00:37:49;0.00;0.00;0.62;0.00;0.00;0.62;2.60;2.03;;;23.50;27.70;;;;;;2250150;61;20383;-64
2021/11/11 00:40:35;0.00;0.00;0.62;0.00;0.00;0.62;3.13;1.90;;;23.50;27.70;;;;;;2252674;61;20367;-62
2021/11/11 00:43:20;0.00;0.00;0.62;0.00;0.00;0.62;2.60;2.00;;;23.50;27.70;;;;;;2253819;61;20383;-63
2021/11/11 00:46:05;0.00;0.00;0.62;0.00;0.00;0.62;3.13;2.17;;;23.50;27.70;;;;;;2253257;61;20359;-62
2021/11/11 00:48:50;0.00;0.00;0.62;0.00;0.00;0.62;2.50;1.83;;;23.50;27.70;;;;;;2252962;61;20359;-63
2021/11/11 00:51:35;0.00;0.00;0.62;0.00;0.00;0.62;2.20;1.67;;;23.50;27.70;;;;;;2253184;61;20517;-63
2021/11/11 00:54:21;0.00;0.00;0.62;0.00;0.00;0.62;2.37;2.07;;;23.50;27.70;;;;;;2253317;61;20728;-62
2021/11/11 00:57:08;0.00;0.00;0.62;0.00;0.00;0.62;2.20;1.60;;;23.50;27.70;;;;;;2250082;61;20607;-63
2021/11/11 00:59:53;0.00;0.00;0.62;0.00;0.00;0.62;2.20;1.70;;;23.50;27.80;;;;;;2250151;61;20379;-62
2021/11/11 01:02:38;0.00;0.00;0.62;0.00;0.00;0.62;2.47;1.80;;;23.50;27.80;;;;;;2250122;61;20598;-62
2021/11/11 01:05:23;0.00;0.00;0.62;0.00;0.00;0.62;2.37;1.93;;;23.50;27.80;;;;;;2250580;61;20376;-62
2021/11/11 01:08:08;0.00;0.00;0.62;0.00;0.00;0.62;2.57;2.13;;;23.50;27.80;;;;;;2253207;61;20359;-63
2021/11/11 01:10:54;0.00;0.00;0.62;0.00;0.00;0.62;2.90;2.20;;;23.50;27.80;;;;;;2252862;61;20356;-63
2021/11/11 01:13:40;0.00;0.00;0.62;0.00;0.00;0.62;2.50;2.27;;;23.50;27.70;;;;;;2253337;61;20367;-63
2021/11/11 01:16:25;0.00;0.00;0.62;0.00;0.00;0.62;2.47;1.87;;;23.40;27.60;;;;;;2253356;61;20388;-63
2021/11/11 01:19:09;0.00;0.00;0.62;0.00;0.00;0.62;3.40;2.40;;;23.40;27.60;;;;;;2250226;61;20407;-63
2021/11/11 01:21:55;0.00;0.00;0.62;0.00;0.00;0.62;3.00;2.03;;;23.40;27.70;;;;;;2249918;61;20471;-63
2021/11/11 01:24:39;0.00;0.00;0.62;0.00;0.00;0.62;3.80;2.20;;;23.40;27.60;;;;;;2250207;61;20359;-63
2021/11/11 01:27:25;0.00;0.00;0.62;0.00;0.00;0.62;2.60;2.20;;;23.40;27.70;;;;;;2250400;61;20351;-64
2021/11/11 01:30:12;0.00;0.00;0.62;0.00;0.00;0.62;2.20;2.00;;;23.40;27.70;;;;;;2250106;61;20359;-63
2021/11/11 01:32:58;0.00;0.00;0.62;0.00;0.00;0.62;3.00;2.37;;;23.40;27.70;;;;;;2249586;61;20395;-63
2021/11/11 01:35:44;0.00;0.00;0.62;0.00;0.00;0.62;2.60;2.13;;;23.40;27.70;;;;;;2250271;61;20364;-62
2021/11/11 01:38:33;0.00;0.00;0.62;0.00;0.00;0.62;2.27;1.87;;;23.40;27.70;;;;;;2250382;61;20593;-63
2021/11/11 01:41:20;0.00;0.00;0.62;0.00;0.00;0.62;3.33;2.33;;;23.40;27.70;;;;;;2253740;61;20359;-62
2021/11/11 01:44:07;0.00;0.00;0.62;0.00;0.00;0.62;2.60;2.20;;;23.40;27.70;;;;;;2253971;61;20359;-61
2021/11/11 01:46:51;0.00;0.00;0.62;0.00;0.00;0.62;2.30;2.00;;;23.40;27.70;;;;;;2257311;61;20367;-64
2021/11/11 01:49:40;0.00;0.00;0.62;0.00;0.00;0.62;3.10;2.40;;;23.40;27.70;;;;;;2254432;61;20355;-63
2021/11/11 01:52:25;0.00;0.00;0.62;0.00;0.00;0.62;2.50;2.17;;;23.40;27.60;;;;;;2257472;61;20402;-62
2021/11/11 01:55:12;0.00;0.00;0.62;0.00;0.00;0.62;2.67;2.20;;;23.40;27.60;;;;;;2254395;61;20359;-62
2021/11/11 01:58:00;0.00;0.00;0.62;0.00;0.00;0.62;3.53;2.77;;;23.40;27.50;;;;;;2254776;61;20763;-64
2021/11/11 02:00:51;0.00;0.00;0.62;0.00;0.00;0.62;3.77;3.37;;;23.40;27.50;;;;;;2255073;61;20347;-60
2021/11/11 02:03:45;0.00;0.00;0.62;0.00;0.00;0.62;3.20;2.90;;;23.40;27.40;;;;;;2254697;61;20379;-61
2021/11/11 02:06:59;0.00;0.00;0.62;0.00;0.00;0.62;3.83;2.90;;;23.40;27.40;;;;;;2257138;61;20727;-65
2021/11/11 02:09:50;0.00;0.00;0.62;0.00;0.00;0.62;3.20;2.87;;;23.40;27.30;;;;;;2254438;61;20383;-65
2021/11/11 02:12:38;0.00;0.00;0.62;0.00;0.00;0.62;3.43;3.13;;;23.40;27.30;;;;;;2254772;61;20366;-65
2021/11/11 02:15:29;0.00;0.00;0.62;0.00;0.00;0.62;4.57;3.50;;;23.30;27.20;;;;;;2255134;61;20470;-62
2021/11/11 02:18:19;0.00;0.00;0.62;0.00;0.00;0.62;3.13;2.83;;;23.30;27.70;;;;;;2254652;61;20628;-62
2021/11/11 02:21:05;0.00;0.00;0.62;0.00;0.00;0.62;3.10;2.70;;;23.30;27.20;;;;;;2254510;61;20362;-61
2021/11/11 02:23:59;0.00;0.00;0.62;0.00;0.00;0.62;3.27;3.00;;;23.20;27.10;;;;;;2254768;61;20367;-63
2021/11/11 02:27:03;0.00;0.00;0.62;0.00;0.00;0.62;4.13;3.10;;;23.30;27.10;;;;;;2258182;61;20355;-65
2021/11/11 02:29:49;0.00;0.00;0.62;0.00;0.00;0.62;4.47;3.67;;;23.20;27.00;;;;;;2254798;61;20402;-64
2021/11/11 02:32:36;0.00;0.00;0.62;0.00;0.00;0.62;3.60;3.30;;;23.20;27.00;;;;;;2257491;61;20633;-64
2021/11/11 02:35:22;0.00;0.00;0.62;0.00;0.00;0.62;5.53;3.70;;;23.20;27.00;;;;;;2254520;61;20363;-63
2021/11/11 02:38:11;0.00;0.00;0.62;0.00;0.00;0.62;3.93;3.27;;;23.20;27.00;;;;;;2254652;61;20363;-64
2021/11/11 02:41:00;0.00;0.00;0.62;0.00;0.00;0.62;3.43;2.90;;;23.20;27.10;;;;;;2254458;61;20479;-64
2021/11/11 02:43:45;0.00;0.00;0.62;0.00;0.00;0.62;3.90;3.50;;;23.10;27.00;;;;;;2254651;61;20370;-64
2021/11/11 02:46:34;0.00;0.00;0.62;0.00;0.00;0.62;4.00;3.17;;;23.10;27.00;;;;;;2254261;61;20637;-63
2021/11/11 02:49:19;0.00;0.00;0.62;0.00;0.00;0.62;4.00;3.60;;;23.10;26.90;;;;;;2254960;61;20386;-62
2021/11/11 02:52:05;0.00;0.00;0.62;0.00;0.00;0.62;3.57;3.00;;;23.10;26.90;;;;;;2257825;61;20422;-66
2021/11/11 02:54:52;0.00;0.00;0.62;0.00;0.00;0.62;4.30;3.63;;;23.10;27.00;;;;;;2254210;61;20409;-63
2021/11/11 02:57:41;0.00;0.00;0.62;0.00;0.00;0.62;4.00;3.60;;;23.00;26.90;;;;;;2254431;61;20609;-64
2021/11/11 03:00:29;0.00;0.00;0.62;0.00;0.00;0.62;4.00;3.60;;;23.00;26.90;;;;;;2254596;61;20363;-63
2021/11/11 03:03:15;0.00;0.00;0.62;0.00;0.00;0.62;3.80;3.33;;;23.00;26.90;;;;;;2254237;61;20442;-65
2021/11/11 03:05:59;0.00;0.00;0.62;0.00;0.00;0.62;3.80;3.40;;;23.00;26.90;;;;;;2254531;61;20367;-61
2021/11/11 03:08:45;0.00;0.00;0.62;0.00;0.00;0.62;4.00;3.40;;;23.00;26.90;;;;;;2254094;61;20358;-66
2021/11/11 03:11:32;0.00;0.00;0.62;0.00;0.00;0.62;4.30;3.90;;;23.00;26.90;;;;;;2254780;61;20429;-62
2021/11/11 03:14:22;0.00;0.00;0.62;0.00;0.00;0.62;4.20;3.70;;;23.00;26.90;;;;;;2254749;61;20758;-64
2021/11/11 03:17:07;0.00;0.00;0.62;0.00;0.00;0.62;5.00;3.20;;;22.90;26.80;;;;;;2254105;61;20494;-64
2021/11/11 03:19:52;0.00;0.00;0.62;0.00;0.00;0.62;4.70;3.27;;;22.90;26.80;;;;;;2254504;61;20722;-62
2021/11/11 03:22:37;0.00;0.00;0.62;0.00;0.00;0.62;5.50;4.03;;;22.90;26.80;;;;;;2254378;61;20394;-63
2021/11/11 03:25:26;0.00;0.00;0.62;0.00;0.00;0.62;4.63;4.10;;;22.90;26.80;;;;;;2254524;61;20358;-65
2021/11/11 03:28:13;0.00;0.00;0.62;0.00;0.00;0.62;6.23;4.13;;;22.90;26.80;;;;;;2254420;61;20466;-64
2021/11/11 03:31:01;0.00;0.00;0.62;0.00;0.00;0.62;5.80;4.23;;;22.90;26.80;;;;;;2253915;61;20455;-63
2021/11/11 03:33:46;0.00;0.00;0.62;0.00;0.00;0.62;9.10;3.70;;;22.80;26.70;;;;;;2254806;61;20715;-62
2021/11/11 03:36:30;0.00;0.00;0.62;0.00;0.00;0.62;3.50;3.20;;;22.80;26.70;;;;;;2257741;61;20628;-64
2021/11/11 03:39:17;0.00;0.00;0.62;0.00;0.00;0.62;4.43;3.60;;;22.80;26.70;;;;;;2254140;61;20366;-64
2021/11/11 03:42:04;0.00;0.00;0.62;0.00;0.00;0.62;5.27;3.53;;;22.80;26.70;;;;;;2254189;61;20786;-65
2021/11/11 03:44:50;0.00;0.00;0.62;0.00;0.00;0.62;4.23;3.80;;;22.80;26.70;;;;;;2254382;61;20362;-65
2021/11/11 03:47:37;0.00;0.00;0.62;0.00;0.00;0.62;4.50;3.57;;;22.80;26.80;;;;;;2254488;61;20378;-63
2021/11/11 03:50:23;0.00;0.00;0.62;0.00;0.00;0.62;4.80;3.53;;;22.70;26.70;;;;;;2254361;61;20355;-64
2021/11/11 03:53:08;0.00;0.00;0.62;0.00;0.00;0.62;4.47;4.07;;;22.70;26.70;;;;;;2253830;61;20417;-63
2021/11/11 03:55:54;0.00;0.00;0.62;0.00;0.00;0.62;4.63;4.13;;;22.70;26.70;;;;;;2254768;61;20426;-65
2021/11/11 03:58:43;0.00;0.00;0.62;0.00;0.00;0.62;4.67;3.80;;;22.70;26.70;;;;;;2254517;61;20405;-62
2021/11/11 04:01:30;0.00;0.00;0.62;0.00;0.00;0.62;4.63;4.13;;;22.70;26.70;;;;;;2253906;61;20525;-62
2021/11/11 04:04:15;0.00;0.00;0.62;0.00;0.00;0.62;4.23;3.83;;;22.60;26.70;;;;;;2254337;61;20651;-63
2021/11/11 04:07:00;0.00;0.00;0.62;0.00;0.00;0.62;5.90;4.20;;;22.70;26.70;;;;;;2254333;61;20656;-63
2021/11/11 04:09:44;0.00;0.00;0.62;0.00;0.00;0.62;4.67;4.00;;;22.60;26.60;;;;;;2257610;61;20735;-60
2021/11/11 04:12:29;0.00;0.00;0.62;0.00;0.00;0.62;4.40;4.00;;;22.60;26.60;;;;;;2257320;61;20430;-62
2021/11/11 04:15:14;0.00;0.00;0.62;0.00;0.00;0.62;5.10;3.40;;;22.60;26.70;;;;;;2253957;61;20359;-64
2021/11/11 04:18:01;0.00;0.00;0.62;0.00;0.00;0.62;4.27;3.87;;;22.60;27.20;;;;;;2254701;61;20398;-63
2021/11/11 04:20:46;0.00;0.00;0.62;0.00;0.00;0.62;4.90;4.40;;;22.50;26.60;;;;;;2254297;61;20363;-61
2021/11/11 04:23:32;0.00;0.00;0.62;0.00;0.00;0.62;4.57;3.87;;;22.50;26.60;;;;;;2253940;61;20478;-64
2021/11/11 04:26:28;0.00;0.00;0.62;0.00;0.00;0.62;5.77;4.37;;;22.50;26.60;;;;;;2254199;61;20730;-64
2021/11/11 04:29:23;0.00;0.00;0.62;0.00;0.00;0.62;5.13;4.40;;;22.50;26.60;;;;;;2254342;61;20432;-63
2021/11/11 04:32:10;0.00;0.00;0.62;0.00;0.00;0.62;4.97;3.70;;;22.50;26.60;;;;;;2254204;61;20703;-65
2021/11/11 04:34:59;0.00;0.00;0.62;0.00;0.00;0.62;4.13;3.73;;;22.50;26.70;;;;;;2254175;61;20436;-63
2021/11/11 04:38:09;0.00;0.00;0.62;0.00;0.00;0.62;4.40;3.60;;;22.50;26.60;;;;;;2253912;61;20498;-64
2021/11/11 04:41:19;0.00;0.00;0.62;0.00;0.00;0.62;5.37;3.97;;;22.50;26.60;;;;;;2253968;61;20398;-64
2021/11/11 05:05:30;0.00;0.00;0.62;0.00;0.00;0.62;5.03;3.57;;;22.30;26.60;;;;;;2256694;61;20390;-62
2021/11/11 05:08:16;0.00;0.00;0.62;0.00;0.00;0.62;4.50;4.10;;;22.30;27.10;;;;;;2254119;61;20426;-64
2021/11/11 05:11:01;0.00;0.00;0.62;0.00;0.00;0.62;5.10;3.87;;;22.30;26.60;;;;;;2254061;61;20367;-63
2021/11/11 05:13:47;0.00;0.00;0.62;0.00;0.00;0.62;8.13;4.13;;;22.30;26.60;;;;;;2254197;61;20374;-62
2021/11/11 05:16:35;0.00;0.00;0.62;0.00;0.00;0.62;3.87;3.47;;;22.20;26.50;;;;;;2254116;61;20387;-67
2021/11/11 05:19:20;0.00;0.00;0.62;0.00;0.00;0.62;6.10;4.23;;;22.20;26.50;;;;;;2254137;61;20355;-62
2021/11/11 05:22:06;0.00;0.00;0.62;0.00;0.00;0.62;4.40;3.73;;;22.20;26.50;;;;;;2253581;61;20453;-62
2021/11/11 05:24:52;0.00;0.00;0.62;0.00;0.00;0.62;4.03;3.50;;;22.20;26.50;;;;;;2254552;61;20421;-62
2021/11/11 05:27:38;0.00;0.00;0.62;0.00;0.00;0.62;5.40;4.50;;;22.20;26.50;;;;;;2254831;61;20370;-65
2021/11/11 05:30:24;0.00;0.00;0.62;0.00;0.00;0.62;4.67;4.10;;;22.20;26.50;;;;;;2254589;61;20378;-64
2021/11/11 05:33:10;0.00;0.00;0.62;0.00;0.00;0.62;5.07;4.27;;;22.20;26.60;;;;;;2254636;61;20386;-63
2021/11/11 05:35:54;0.00;0.00;0.62;0.00;0.00;0.62;5.07;4.33;;;22.10;26.50;;;;;;2254879;61;20358;-62
2021/11/11 05:38:41;0.00;0.00;0.62;0.00;0.00;0.62;8.80;4.37;;;22.10;26.50;;;;;;2254776;61;20359;-63
2021/11/11 05:41:26;0.00;0.00;0.62;0.00;0.00;0.62;5.50;3.50;;;22.10;26.50;;;;;;2254593;61;20362;-63
2021/11/11 05:44:14;0.00;0.00;0.62;0.00;0.00;0.62;8.50;5.00;;;22.10;26.50;;;;;;2272677;61;20402;-62
2021/11/11 05:46:59;0.00;0.00;0.62;0.00;0.00;0.62;5.33;3.90;;;22.10;26.50;;;;;;2253855;61;20399;-63
2021/11/11 05:49:44;0.00;0.00;0.62;0.00;0.00;0.62;5.33;4.30;;;22.10;26.60;;;;;;2253732;61;20364;-65
2021/11/11 05:52:30;0.00;0.00;0.62;0.00;0.00;0.62;6.00;3.50;;;22.10;26.50;;;;;;2253068;61;20696;-65
2021/11/11 05:55:16;0.00;0.00;0.62;0.00;0.00;0.62;4.60;4.20;;;22.10;26.50;;;;;;2253266;61;20371;-63
2021/11/11 05:58:02;0.00;0.00;0.62;0.00;0.00;0.62;3.77;3.20;;;22.10;26.50;;;;;;2253337;61;20447;-62
2021/11/11 06:00:47;0.00;0.00;0.62;0.00;0.00;0.62;6.70;4.57;;;22.10;26.50;;;;;;2253542;61;20368;-65
2021/11/11 06:03:37;0.00;0.00;0.62;0.00;0.00;0.62;6.57;3.90;;;22.10;26.50;;;;;;2253757;61;20415;-62
2021/11/11 06:06:23;0.00;0.00;0.62;0.00;0.00;0.62;5.20;4.70;;;22.10;26.50;;;;;;2253008;61;20640;-63
2021/11/11 06:09:08;0.00;0.00;0.62;0.00;0.00;0.62;5.30;4.07;;;22.00;26.50;;;;;;2253858;61;20363;-65
2021/11/11 06:11:54;0.00;0.00;0.62;0.00;0.00;0.62;5.40;4.43;;;22.00;26.50;;;;;;2253385;61;20407;-62
2021/11/11 06:14:39;0.00;0.00;0.62;0.00;0.00;0.62;4.70;4.00;;;22.00;26.50;;;;;;2253641;61;20476;-62
2021/11/11 06:17:24;0.00;0.00;0.62;0.00;0.00;0.62;7.47;3.97;;;22.00;26.50;;;;;;2253710;61;20417;-62
2021/11/11 06:20:26;0.00;0.00;0.62;0.00;0.00;0.62;4.73;4.20;;;22.00;26.50;;;;;;2253309;61;20436;-64
2021/11/11 06:23:11;0.00;0.00;0.62;0.00;0.00;0.62;8.60;5.13;;;22.00;26.50;;;;;;2253397;61;20394;-63
2021/11/11 06:25:57;0.00;0.00;0.62;0.00;0.00;0.62;5.73;4.13;;;22.00;26.50;;;;;;2250493;61;20811;-67
2021/11/11 06:28:43;0.00;0.00;0.62;0.00;0.00;0.62;6.20;4.07;;;22.00;26.50;;;;;;2253249;61;20460;-65
2021/11/11 06:31:28;0.00;0.00;0.62;0.00;0.00;0.62;4.23;3.87;;;21.90;26.50;;;;;;2253678;61;20496;-64
2021/11/11 06:34:13;0.00;0.00;0.62;0.00;0.00;0.62;5.60;5.00;;;21.90;26.50;;;;;;2253541;61;20642;-67
2021/11/11 06:36:57;0.00;0.00;0.62;0.00;0.00;0.62;5.13;4.17;;;21.90;26.50;;;;;;2253711;61;20387;-63
2021/11/11 06:39:42;0.00;0.00;0.62;0.00;0.00;0.62;4.90;3.63;;;21.90;26.50;;;;;;2253827;61;20711;-66
2021/11/11 06:42:26;0.00;0.00;0.62;0.00;0.00;0.62;4.93;3.83;;;21.90;26.50;;;;;;2253694;61;20743;-64
2021/11/11 06:45:14;0.00;0.00;0.62;0.00;0.00;0.62;5.87;4.20;;;21.90;26.50;;;;;;2253801;61;20746;-67
2021/11/11 06:47:58;0.00;0.00;0.62;0.00;0.00;0.62;5.77;3.57;;;21.90;26.50;;;;;;2253343;61;20356;-62
2021/11/11 06:50:45;0.00;0.00;0.62;0.00;0.00;0.62;6.77;4.50;;;21.90;26.50;;;;;;2253143;61;20364;-62
2021/11/11 06:53:29;0.00;0.00;0.62;0.00;0.00;0.62;5.43;4.20;;;21.90;26.50;;;;;;2253665;61;20657;-67
2021/11/11 06:56:14;0.00;0.00;0.62;0.00;0.00;0.62;3.93;3.33;;;21.90;26.50;;;;;;2253754;61;20366;-65
2021/11/11 06:58:59;0.00;0.00;0.62;0.00;0.00;0.62;5.90;3.97;;;21.80;26.50;;;;;;2253576;61;20359;-65
2021/11/11 07:01:45;0.00;0.00;0.62;0.00;0.00;0.62;6.10;4.40;;;21.80;26.50;;;;;;2253135;61;20380;-63
2021/11/11 07:04:30;0.00;0.00;0.62;0.00;0.00;0.62;5.57;4.90;;;21.80;26.50;;;;;;2253395;61;20435;-65
2021/11/11 07:07:15;0.00;0.00;0.62;0.00;0.00;0.62;6.13;3.83;;;21.80;26.50;;;;;;2253338;61;20356;-63
2021/11/11 07:09:59;0.00;0.00;0.62;0.00;0.00;0.62;6.77;4.40;;;21.80;26.50;;;;;;2253501;61;20569;-61
2021/11/11 07:12:44;0.00;0.00;0.62;0.00;0.00;0.62;6.40;4.73;;;21.80;26.50;;;;;;2253572;61;20383;-62
2021/11/11 07:15:29;0.00;0.00;0.62;0.00;0.00;0.62;5.20;4.57;;;21.80;26.50;;;;;;2254145;61;20387;-62
2021/11/11 07:18:15;0.00;0.00;0.62;0.00;0.00;0.62;6.87;5.30;;;21.80;26.50;;;;;;2253645;61;20468;-62
2021/11/11 07:20:59;0.00;0.00;0.62;0.00;0.00;0.62;5.87;4.53;;;21.80;26.60;;;;;;2253241;61;20363;-64
2021/11/11 07:23:44;0.00;0.00;0.62;0.00;0.00;0.62;5.03;4.53;;;21.70;26.50;;;;;;2253630;61;20444;-61
2021/11/11 07:26:29;0.00;0.00;0.62;0.00;0.00;0.62;4.87;4.30;;;21.70;26.50;;;;;;2253713;61;20368;-65
2021/11/11 07:29:14;0.00;0.00;0.62;0.00;0.00;0.62;5.27;4.23;;;21.70;26.50;;;;;;2253671;61;20407;-64
2021/11/11 07:31:59;0.00;0.00;0.62;0.00;0.00;0.62;5.50;4.57;;;21.70;26.50;;;;;;2253429;61;20479;-64
2021/11/11 07:34:45;0.00;0.00;0.62;0.00;0.00;0.62;6.73;4.70;;;21.70;26.50;;;;;;2253679;61;20379;-62
2021/11/11 07:37:29;0.00;0.00;0.62;0.00;0.00;0.62;4.40;3.73;;;21.70;26.50;;;;;;2253541;61;20379;-64
2021/11/11 07:40:19;0.00;0.00;0.62;0.00;0.00;0.62;4.47;3.87;;;21.60;26.50;;;;;;2253664;61;20365;-67
2021/11/11 07:43:03;0.00;0.00;0.62;0.00;0.00;0.62;4.50;4.10;;;21.70;26.60;;;;;;2253152;61;20447;-63
2021/11/11 07:45:54;0.00;0.00;0.62;0.00;0.00;0.62;4.60;4.20;;;21.70;26.50;;;;;;2253470;61;20403;-63
2021/11/11 07:48:38;0.00;0.00;0.62;0.00;0.00;0.62;4.87;4.00;;;21.70;26.50;;;;;;2253744;61;20392;-63
2021/11/11 07:51:24;0.00;0.00;0.62;0.00;0.00;0.62;5.43;4.30;;;21.60;26.50;;;;;;2253334;61;20364;-64
2021/11/11 07:54:09;0.00;0.00;0.62;0.00;0.00;0.62;5.07;4.07;;;21.70;26.60;;;;;;2253495;61;20368;-62
2021/11/11 07:56:55;0.00;0.00;0.62;0.00;0.00;0.62;5.93;4.10;;;21.70;26.60;;;;;;2253552;61;20756;-64
2021/11/11 07:59:41;0.00;0.00;0.62;0.00;0.00;0.62;5.50;4.30;;;21.70;26.60;;;;;;2254110;61;20359;-62
2021/11/11 08:02:27;0.00;0.00;0.62;0.00;0.00;0.62;6.53;4.40;;;21.70;26.60;;;;;;2253418;61;20387;-62
2021/11/11 08:05:14;0.00;0.00;0.62;0.00;0.00;0.62;4.80;4.30;;;21.60;26.50;;;;;;2253182;61;20354;-65
2021/11/11 08:08:00;0.00;0.00;0.62;0.00;0.00;0.62;6.13;4.70;;;21.60;27.10;;;;;;2253637;61;20363;-64
2021/11/11 08:10:45;0.00;0.00;0.62;0.00;0.00;0.62;5.57;4.73;;;21.60;26.60;;;;;;2253956;61;20364;-63
2021/11/11 08:13:29;0.00;0.00;0.62;0.00;0.00;0.62;5.37;4.80;;;21.60;26.50;;;;;;2253341;61;20419;-63
2021/11/11 08:16:14;0.00;0.00;0.62;0.00;0.00;0.62;4.97;4.07;;;21.60;26.60;;;;;;2253523;61;20360;-65
2021/11/11 08:18:59;0.00;0.00;0.62;0.00;0.00;0.62;4.87;4.10;;;21.60;26.70;;;;;;2253737;61;20367;-65
2021/11/11 08:21:46;0.00;0.00;0.62;0.00;0.00;0.62;4.80;4.00;;;21.60;26.70;;;;;;2253571;61;20380;-65
2021/11/11 08:24:40;0.00;0.00;0.62;0.00;0.00;0.62;6.33;5.20;;;21.60;26.70;;;;;;2253501;61;20359;-63
2021/11/11 08:27:25;0.00;0.00;0.62;0.00;0.00;0.62;6.13;5.33;;;21.60;26.80;;;;;;2253029;61;20364;-61
2021/11/11 08:30:14;0.00;0.00;0.62;0.00;0.00;0.62;5.77;4.93;;;21.60;26.80;;;;;;2253279;61;20368;-66
2021/11/11 08:32:59;0.00;0.00;0.62;0.00;0.00;0.62;7.50;5.00;;;21.60;26.80;;;;;;2253578;61;20661;-66
2021/11/11 08:35:45;0.00;0.00;0.62;0.00;0.00;0.62;4.93;4.30;;;21.60;26.80;;;;;;2253023;61;20356;-65
2021/11/11 08:38:30;0.00;0.00;0.62;0.00;0.00;0.62;5.90;4.70;;;21.60;26.80;;;;;;2253288;61;20435;-63
2021/11/11 08:41:17;0.00;0.00;0.62;0.00;0.00;0.62;6.47;4.80;;;21.60;26.80;;;;;;2253318;61;20632;-62
2021/11/11 08:44:05;0.00;0.00;0.62;0.00;0.00;0.62;6.90;4.97;;;21.70;26.90;;;;;;2254038;61;20573;-61
2021/11/11 08:46:50;0.00;0.00;0.62;0.00;0.00;0.62;5.83;4.80;;;21.70;26.90;;;;;;2253096;61;20432;-67
2021/11/11 08:49:36;0.00;0.00;0.62;0.00;0.00;0.62;5.50;4.80;;;21.70;26.90;;;;;;2252685;61;20392;-65
2021/11/11 08:52:21;0.00;0.00;0.62;0.00;0.00;0.62;4.57;4.17;;;21.70;27.00;;;;;;2253382;61;20419;-64
2021/11/11 08:55:06;0.00;0.00;0.62;0.00;0.00;0.62;6.50;4.87;;;21.60;26.90;;;;;;2253756;61;20355;-60
2021/11/11 08:57:53;0.00;0.00;0.62;0.00;0.00;0.62;5.20;4.53;;;21.70;26.90;;;;;;2253509;61;20411;-62
2021/11/11 09:00:42;0.00;0.00;0.62;0.00;0.00;0.62;5.03;4.53;;;21.70;26.90;;;;;;2253265;61;20601;-67
2021/11/11 09:03:27;0.00;0.00;0.62;0.00;0.00;0.62;6.27;4.27;;;21.70;27.00;;;;;;2254038;61;20707;-64
2021/11/11 09:06:12;0.00;0.00;0.62;0.00;0.00;0.62;6.77;4.43;;;21.70;27.00;;;;;;2254342;61;20351;-63
2021/11/11 09:08:57;0.00;0.00;0.62;0.00;0.00;0.62;5.80;4.80;;;21.70;27.00;;;;;;2253923;61;20359;-65
2021/11/11 09:11:43;0.00;0.00;0.62;0.00;0.00;0.62;5.87;4.00;;;21.70;27.00;;;;;;2253780;61;20398;-65
2021/11/11 09:14:29;0.00;0.00;0.62;0.00;0.00;0.62;7.70;5.17;;;21.70;27.00;;;;;;2254239;61;20579;-61
2021/11/11 09:17:14;0.00;0.00;0.62;0.00;0.00;0.62;6.57;4.80;;;21.70;27.00;;;;;;2254250;61;20387;-63
2021/11/11 09:19:59;0.00;0.00;0.62;0.00;0.00;0.62;11.13;5.30;;;21.70;27.10;;;;;;2254219;61;20375;-64
2021/11/11 09:22:44;0.00;0.00;0.62;0.00;0.00;0.62;5.80;5.30;;;21.70;27.10;;;;;;2253757;61;20647;-65
2021/11/11 09:25:31;0.00;0.00;0.62;0.00;0.00;0.62;5.63;4.53;;;21.70;27.10;;;;;;2254070;61;20363;-64
2021/11/11 09:28:16;0.00;0.00;0.62;0.00;0.00;0.62;5.67;5.07;;;21.70;27.20;;;;;;2254264;61;20356;-65
2021/11/11 09:31:02;0.00;0.00;0.62;0.00;0.00;0.62;5.60;5.00;;;21.70;27.10;;;;;;2253921;61;20363;-65
2021/11/11 09:33:47;0.00;0.00;0.62;0.00;0.00;0.62;4.93;4.43;;;21.70;27.20;;;;;;2253703;61;20483;-69
2021/11/11 09:36:33;0.00;0.00;0.62;0.00;0.00;0.62;7.60;4.80;;;21.70;27.20;;;;;;2253750;61;20457;-67
2021/11/11 09:39:17;0.00;0.00;0.62;0.00;0.00;0.62;6.70;4.50;;;21.70;27.20;;;;;;2254382;61;20359;-63
2021/11/11 09:42:02;0.00;0.00;0.62;0.00;0.00;0.62;7.47;4.40;;;21.70;27.20;;;;;;2253644;61;20382;-67
2021/11/11 09:44:48;0.00;0.00;0.62;0.00;0.00;0.62;5.63;4.20;;;21.70;27.20;;;;;;2253834;61;20412;-65
2021/11/11 09:47:34;0.00;0.00;0.62;0.00;0.00;0.62;5.63;4.43;;;21.70;27.20;;;;;;2254000;61;20355;-66
2021/11/11 09:50:23;0.00;0.00;0.62;0.00;0.00;0.62;4.70;4.20;;;21.70;27.20;;;;;;2254117;61;20476;-65
2021/11/11 09:53:13;0.00;0.00;0.62;0.00;0.00;0.62;7.10;4.90;;;21.80;27.30;;;;;;2253571;61;20454;-64
2021/11/11 09:59:01;0.00;0.00;0.62;0.00;0.00;0.62;6.97;5.60;;;21.80;27.20;;;;;;2253912;61;20712;-64
2021/11/11 10:01:46;0.00;0.00;0.62;0.00;0.00;0.62;5.97;4.90;;;21.70;27.10;;;;;;2254067;61;20658;-63
2021/11/11 10:04:33;0.00;0.00;0.62;0.00;0.00;0.62;4.90;4.20;;;21.80;27.20;;;;;;2253966;61;20664;-63
2021/11/11 10:07:18;0.00;0.00;0.62;0.00;0.00;0.62;4.70;3.77;;;21.70;27.20;;;;;;2253635;61;20356;-63
2021/11/11 10:10:04;0.00;0.00;0.62;0.00;0.00;0.62;4.60;4.10;;;21.80;27.20;;;;;;2253995;61;20468;-65
2021/11/11 10:13:08;0.00;0.00;0.62;0.00;0.00;0.62;5.37;4.53;;;21.80;27.20;;;;;;2253955;61;20489;-66
2021/11/11 10:16:14;0.00;0.00;0.62;0.00;0.00;0.62;4.03;3.73;;;21.80;27.20;;;;;;2253894;61;20412;-65
2021/11/11 10:19:02;0.00;0.00;0.62;0.00;0.00;0.62;5.23;4.00;;;21.80;27.30;;;;;;2253608;61;20578;-64
2021/11/11 10:21:59;0.00;0.00;0.62;0.00;0.00;0.62;4.33;3.70;;;21.80;27.20;;;;;;2253377;61;20520;-64
2021/11/11 10:24:47;0.00;0.00;0.62;0.00;0.00;0.62;5.77;4.03;;;21.80;27.30;;;;;;2253978;61;20359;-64
2021/11/11 10:27:50;0.00;0.00;0.62;0.00;0.00;0.62;4.10;3.70;;;21.80;27.30;;;;;;2253918;61;20433;-64
2021/11/11 10:30:35;0.00;0.00;0.62;0.00;0.00;0.62;4.53;3.83;;;21.80;27.30;;;;;;2253534;61;20776;-63
2021/11/11 10:33:20;0.00;0.00;0.62;0.00;0.00;0.62;5.00;3.10;;;21.90;27.30;;;;;;2253487;61;20439;-62
2021/11/11 10:36:06;0.00;0.00;0.62;0.00;0.00;0.62;4.50;3.47;;;21.80;27.30;;;;;;2253789;61;20495;-61
2021/11/11 10:39:09;0.00;0.00;0.62;0.00;0.00;0.62;4.13;3.00;;;21.90;27.30;;;;;;2253974;61;20388;-62
2021/11/11 10:41:58;0.00;0.00;0.62;0.00;0.00;0.62;3.70;2.83;;;21.90;27.30;;;;;;2253679;61;20379;-62
2021/11/11 10:44:46;0.00;0.00;0.62;0.00;0.00;0.62;4.50;2.97;;;21.90;27.30;;;;;;2253683;61;20366;-66
2021/11/11 10:47:34;0.00;0.00;0.62;0.00;0.00;0.62;3.20;2.67;;;21.90;27.30;;;;;;2253552;61;20472;-67
2021/11/11 10:50:24;0.00;0.00;0.62;0.00;0.00;0.62;2.87;2.30;;;21.90;27.30;;;;;;2254101;61;20371;-61
2021/11/11 10:53:13;0.00;0.00;0.62;0.00;0.00;0.62;3.03;2.20;;;21.90;27.40;;;;;;2253760;61;20750;-63
2021/11/11 10:56:02;0.00;0.00;0.62;0.00;0.00;0.62;3.17;2.37;;;21.90;27.40;;;;;;2253473;61;20363;-69
2021/11/11 10:58:47;0.00;0.00;0.62;0.00;0.00;0.62;3.10;1.90;;;21.90;27.30;;;;;;2253700;61;20391;-67
2021/11/11 11:01:32;0.00;0.00;0.62;0.00;0.00;0.62;2.37;1.90;;;21.90;27.40;;;;;;2253563;61;20663;-68
2021/11/11 11:04:23;0.00;0.00;0.62;0.00;0.00;0.62;3.00;1.87;;;21.90;27.40;;;;;;2253778;61;20625;-67
2021/11/11 11:07:13;0.00;0.00;0.62;0.00;0.00;0.62;2.83;1.90;;;21.90;27.40;;;;;;2253680;61;20391;-63
2021/11/11 11:10:05;0.00;0.00;0.62;0.00;0.00;0.62;2.80;1.90;;;21.90;27.50;;;;;;2253357;61;20376;-66
2021/11/11 11:12:51;0.00;0.00;0.62;0.00;0.00;0.62;2.20;1.80;;;21.90;27.50;;;;;;2253933;61;20452;-65
2021/11/11 11:15:49;0.00;0.00;0.62;0.00;0.00;0.62;2.93;1.73;;;21.90;27.50;;;;;;2254302;61;20406;-63
2021/11/11 11:18:38;0.00;0.00;0.62;0.00;0.00;0.62;3.27;2.13;;;21.90;27.50;;;;;;2253564;61;20791;-63
2021/11/11 11:21:27;0.00;0.00;0.62;0.00;0.00;0.62;3.27;2.23;;;21.90;27.50;;;;;;2253493;61;20448;-63
2021/11/11 11:24:15;0.00;0.00;0.62;0.00;0.00;0.62;4.00;2.53;;;22.00;27.60;;;;;;2253403;61;20368;-62